createdAt,value
2018-10-12T00:00:28.572Z,96.50
2018-10-12T00:05:31.751Z,96.70
2018-10-12T00:10:34.851Z,96.80
2018-10-12T00:15:37.972Z,97.10
2018-10-12T00:20:41.099Z,97.20
2018-10-12T00:25:44.198Z,97.10
2018-10-12T00:30:47.316Z,96.90
2018-10-12T00:35:50.426Z,97.00
2018-10-12T00:40:53.512Z,97.20
2018-10-12T00:45:56.944Z,97.00
2018-10-12T00:51:00.109Z,97.60
2018-10-12T00:56:03.807Z,97.40
2018-10-12T01:01:07.176Z,97.50
2018-10-12T01:06:10.800Z,97.80
2018-10-12T01:11:14.673Z,98.20
2018-10-12T01:16:17.970Z,98.60
2018-10-12T01:21:21.078Z,98.00
2018-10-12T01:26:24.204Z,98.20
2018-10-12T01:31:28.104Z,98.40
2018-10-12T01:36:31.206Z,98.90
2018-10-12T01:41:34.317Z,99.30
2018-10-12T01:46:37.415Z,98.50
2018-10-12T01:51:40.507Z,98.60
2018-10-12T01:56:43.612Z,99.30
2018-10-12T02:01:46.713Z,99.20
2018-10-12T02:06:49.835Z,98.80
2018-10-12T02:11:52.935Z,98.70
2018-10-12T02:16:56.012Z,98.80
2018-10-12T02:21:59.202Z,99.30
2018-10-12T02:27:02.282Z,99.60
2018-10-12T02:32:05.474Z,99.10
2018-10-12T02:37:08.566Z,99.90
2018-10-12T02:42:11.652Z,99.90
2018-10-12T02:47:14.736Z,99.90
2018-10-12T02:52:17.820Z,99.90
2018-10-12T02:57:20.922Z,99.40
2018-10-12T03:02:24.017Z,99.70
2018-10-12T03:07:27.233Z,99.80
2018-10-12T03:12:30.349Z,99.60
2018-10-12T03:17:33.460Z,99.90
2018-10-12T03:22:36.576Z,99.90
2018-10-12T03:27:51.305Z,99.80
2018-10-12T03:32:54.413Z,99.70
2018-10-12T03:37:57.513Z,99.80
2018-10-12T03:48:10.104Z,99.60
2018-10-12T03:53:13.640Z,99.90
2018-10-12T03:58:16.772Z,99.90
2018-10-12T04:03:19.848Z,99.90
2018-10-12T04:08:22.924Z,99.90
2018-10-12T04:13:26.033Z,99.60
2018-10-12T04:18:29.125Z,99.70
2018-10-12T04:23:32.216Z,99.30
2018-10-12T04:28:35.326Z,99.60
2018-10-12T04:33:38.466Z,99.90
2018-10-12T04:38:53.251Z,99.90
2018-10-12T04:43:58.812Z,99.90
2018-10-12T04:49:02.573Z,99.90
2018-10-12T04:54:06.310Z,99.90
2018-10-12T04:59:09.556Z,99.90
2018-10-12T05:04:12.704Z,99.90
2018-10-12T05:09:16.106Z,99.90
2018-10-12T05:14:19.215Z,99.90
2018-10-12T05:19:22.437Z,99.90
2018-10-12T05:24:25.526Z,99.90
2018-10-12T05:29:28.685Z,99.90
2018-10-12T05:34:31.846Z,99.90
2018-10-12T05:39:34.960Z,99.90
2018-10-12T05:44:38.078Z,99.90
2018-10-12T05:49:52.513Z,99.90
2018-10-12T05:54:55.605Z,99.90
2018-10-12T05:59:58.707Z,99.90
2018-10-12T06:05:01.805Z,99.90
2018-10-12T06:10:04.950Z,99.90
2018-10-12T06:15:08.024Z,99.90
2018-10-12T06:20:11.105Z,99.90
2018-10-12T06:25:14.214Z,99.90
2018-10-12T06:30:17.305Z,99.90
2018-10-12T06:35:20.380Z,99.90
2018-10-12T06:40:23.508Z,99.90
2018-10-12T06:45:26.588Z,99.90
2018-10-12T06:50:29.694Z,99.90
2018-10-12T06:55:32.801Z,99.90
2018-10-12T07:00:36.077Z,99.90
2018-10-12T07:05:39.244Z,99.90
2018-10-12T07:10:42.264Z,99.90
2018-10-12T07:15:45.365Z,99.90
2018-10-12T07:20:48.456Z,99.90
2018-10-12T07:25:51.548Z,99.90
2018-10-12T07:30:54.643Z,99.90
2018-10-12T07:35:57.731Z,99.90
2018-10-12T07:41:00.861Z,99.90
2018-10-12T07:46:04.009Z,99.90
2018-10-12T07:51:07.112Z,99.90
2018-10-12T07:56:10.212Z,99.90
2018-10-12T08:01:13.308Z,99.90
2018-10-12T08:06:16.490Z,99.90
2018-10-12T08:11:19.585Z,99.90
2018-10-12T08:16:22.688Z,99.90
2018-10-12T08:21:25.825Z,99.80
2018-10-12T08:26:28.926Z,92.60
2018-10-12T08:31:32.051Z,90.90
2018-10-12T08:36:35.128Z,92.80
2018-10-12T08:41:38.367Z,93.70
2018-10-12T08:46:41.501Z,94.60
2018-10-12T08:51:45.556Z,95.00
2018-10-12T08:56:48.624Z,95.30
2018-10-12T09:01:51.702Z,95.10
2018-10-12T09:06:54.782Z,95.40
2018-10-12T09:11:57.884Z,95.30
2018-10-12T09:17:00.974Z,95.20
2018-10-12T09:22:04.088Z,95.10
2018-10-12T09:27:07.272Z,94.40
2018-10-12T09:32:10.310Z,93.60
2018-10-12T09:37:13.428Z,93.10
2018-10-12T09:42:16.504Z,92.80
2018-10-12T09:47:19.611Z,92.30
2018-10-12T09:52:22.698Z,91.30
2018-10-12T09:57:26.779Z,90.90
2018-10-12T10:02:35.459Z,90.40
2018-10-12T10:07:39.293Z,90.50
2018-10-12T10:12:42.546Z,90.60
2018-10-12T10:17:45.674Z,90.10
2018-10-12T10:22:48.767Z,90.20
2018-10-12T10:27:51.877Z,90.90
2018-10-12T10:32:54.997Z,89.70
2018-10-12T10:37:58.085Z,90.10
2018-10-12T10:43:01.260Z,88.90
2018-10-12T10:48:04.707Z,89.00
2018-10-12T10:53:07.792Z,87.70
2018-10-12T10:58:10.868Z,88.90
2018-10-12T11:03:13.971Z,88.20
2018-10-12T11:08:17.244Z,87.40
2018-10-12T11:13:20.368Z,87.50
2018-10-12T11:18:23.432Z,87.40
2018-10-12T11:23:26.549Z,86.40
2018-10-12T11:28:29.696Z,86.60
2018-10-12T11:33:32.795Z,85.40
2018-10-12T11:38:35.939Z,86.20
2018-10-12T11:43:39.707Z,86.10
2018-10-12T11:48:42.796Z,85.70
2018-10-12T11:53:45.903Z,85.20
2018-10-12T11:58:49.035Z,84.40
2018-10-12T12:03:52.171Z,83.80
2018-10-12T12:08:55.256Z,85.00
2018-10-12T12:13:58.422Z,84.30
2018-10-12T12:19:01.440Z,84.10
2018-10-12T12:24:04.553Z,84.70
2018-10-12T12:29:07.648Z,83.70
2018-10-12T12:34:10.732Z,82.40
2018-10-12T12:39:13.833Z,80.60
2018-10-12T12:44:16.947Z,79.10
2018-10-12T12:49:20.353Z,78.90
2018-10-12T12:54:23.317Z,77.90
2018-10-12T12:59:26.418Z,77.40
2018-10-12T13:04:29.530Z,77.30
2018-10-12T13:09:32.625Z,77.20
2018-10-12T13:14:35.730Z,78.60
2018-10-12T13:19:38.840Z,77.50
2018-10-12T13:24:41.964Z,76.30
2018-10-12T13:29:45.084Z,75.00
2018-10-12T13:34:48.176Z,74.70
2018-10-12T13:39:51.437Z,74.10
2018-10-12T13:44:54.511Z,73.90
2018-10-12T13:49:57.596Z,73.90
2018-10-12T13:55:00.712Z,74.20
2018-10-12T14:00:03.830Z,74.00
2018-10-12T14:05:06.953Z,74.10
2018-10-12T14:10:10.054Z,72.90
2018-10-12T14:15:13.160Z,71.70
2018-10-12T14:20:16.235Z,72.10
2018-10-12T14:25:19.416Z,71.30
2018-10-12T14:30:22.719Z,72.40
2018-10-12T14:35:25.834Z,71.50
2018-10-12T14:40:28.905Z,71.20
2018-10-12T14:45:32.152Z,70.80
2018-10-12T14:50:35.254Z,69.90
2018-10-12T14:55:38.376Z,69.60
2018-10-12T15:00:41.481Z,68.50
2018-10-12T15:05:44.584Z,69.70
2018-10-12T15:10:47.690Z,69.00
2018-10-12T15:15:50.776Z,70.30
2018-10-12T15:20:53.920Z,69.90
2018-10-12T15:25:57.000Z,70.30
2018-10-12T15:31:00.134Z,70.50
2018-10-12T15:36:03.234Z,70.80
2018-10-12T15:41:06.324Z,71.20
2018-10-12T15:46:09.496Z,71.80
2018-10-12T15:51:12.708Z,72.40
2018-10-12T15:56:15.835Z,73.30
2018-10-12T16:01:18.848Z,74.00
2018-10-12T16:06:22.003Z,74.90
2018-10-12T16:11:25.805Z,74.10
2018-10-12T16:16:28.919Z,75.40
2018-10-12T16:21:32.115Z,76.60
2018-10-12T16:26:35.240Z,77.70
2018-10-12T16:31:38.346Z,78.30
2018-10-12T16:36:41.475Z,78.80
2018-10-12T16:41:44.555Z,79.00
2018-10-12T16:46:47.713Z,79.60
2018-10-12T16:51:51.020Z,79.30
2018-10-12T16:56:54.140Z,79.70
2018-10-12T17:01:57.412Z,80.10
2018-10-12T17:07:00.563Z,80.60
2018-10-12T17:12:03.656Z,80.90
2018-10-12T17:17:07.129Z,81.50
2018-10-12T17:22:10.227Z,81.80
2018-10-12T17:27:13.484Z,82.50
2018-10-12T17:32:16.609Z,82.90
2018-10-12T17:37:19.781Z,83.10
2018-10-12T17:42:29.337Z,83.80
2018-10-12T17:47:32.452Z,84.10
2018-10-12T17:52:35.600Z,85.20
2018-10-12T17:57:39.091Z,85.80
2018-10-12T18:02:42.510Z,86.00
2018-10-12T18:07:46.377Z,87.20
2018-10-12T18:12:49.733Z,87.50
2018-10-12T18:17:52.851Z,87.90
2018-10-12T18:22:56.281Z,88.50
2018-10-12T18:28:00.000Z,89.30
2018-10-12T18:33:03.399Z,90.00
2018-10-12T18:38:06.803Z,90.00
2018-10-12T18:43:09.977Z,90.30
2018-10-12T18:48:13.328Z,90.40
2018-10-12T18:54:41.388Z,90.60
2018-10-12T18:59:45.019Z,90.80
2018-10-12T19:04:48.277Z,91.20
2018-10-12T19:09:51.561Z,91.50
2018-10-12T19:14:55.039Z,91.60
2018-10-12T19:19:58.159Z,91.70
2018-10-12T19:25:01.629Z,92.10
2018-10-12T19:30:05.328Z,92.20
2018-10-12T19:35:08.448Z,92.00
2018-10-12T19:40:11.808Z,92.30
2018-10-12T19:45:15.046Z,92.40
2018-10-12T19:50:18.543Z,92.60
2018-10-12T19:55:21.965Z,92.90
2018-10-12T20:00:25.576Z,92.90
2018-10-12T20:05:28.754Z,92.90
2018-10-12T20:10:32.075Z,93.10
2018-10-12T20:15:35.820Z,93.20
2018-10-12T20:20:38.989Z,93.20
2018-10-12T20:25:42.121Z,93.10
2018-10-12T20:30:45.236Z,93.40
2018-10-12T20:35:48.332Z,93.30
2018-10-12T20:40:51.524Z,93.50
2018-10-12T20:45:54.617Z,93.70
2018-10-12T20:50:57.774Z,93.70
2018-10-12T20:56:00.838Z,93.90
2018-10-12T21:01:03.920Z,93.80
2018-10-12T21:06:07.579Z,94.30
2018-10-12T21:11:10.700Z,94.20
2018-10-12T21:16:13.787Z,94.30
2018-10-12T21:21:16.847Z,94.40
2018-10-12T21:26:19.957Z,94.30
2018-10-12T21:31:23.037Z,94.30
2018-10-12T21:36:26.107Z,94.50
2018-10-12T21:41:29.233Z,94.90
2018-10-12T21:46:32.323Z,95.10
2018-10-12T21:51:35.401Z,95.10
2018-10-12T21:56:38.550Z,95.00
2018-10-12T22:01:41.612Z,95.00
2018-10-12T22:06:44.680Z,95.10
2018-10-12T22:11:47.781Z,95.20
2018-10-12T22:16:50.853Z,95.10
2018-10-12T22:21:53.961Z,95.10
2018-10-12T22:26:57.050Z,95.30
2018-10-12T22:32:00.167Z,95.20
2018-10-12T22:37:03.269Z,95.10
2018-10-12T22:42:06.371Z,95.80
2018-10-12T22:47:09.982Z,95.50
2018-10-12T22:52:13.072Z,95.50
2018-10-12T22:57:16.169Z,95.60
2018-10-12T23:02:19.273Z,95.50
2018-10-12T23:07:22.345Z,95.70
2018-10-12T23:12:25.535Z,95.80
2018-10-12T23:17:28.613Z,95.60
2018-10-12T23:22:31.716Z,95.80
2018-10-12T23:27:34.872Z,96.30
2018-10-12T23:32:38.160Z,96.50
2018-10-12T23:37:41.233Z,96.40
2018-10-12T23:42:44.328Z,96.60
2018-10-12T23:47:47.419Z,96.10
2018-10-12T23:52:50.592Z,96.10
2018-10-12T23:57:53.702Z,96.30
